KPUJ

Paulding Northwest Atlanta Airport

Atlanta, Georgia, USA
METAR KPUJ 250455Z AUTO 00000KT 10SM CLR 20/20 A3011 RMK AO2
Observed Flight Rules
May-25 @ 04:55 UTC (34 minutes ago) Visual Flight Rules
Visibility Clouds
10 miles
  • Clear skies
Temperatures Readings
Current 20°C / 68°F
Dewpoint 20°C / 68°F
Humidity 100%
Altimeter 30.11" Hg
Pressure 1020 hPa
Elevation 393
METAR KPUJ 250455Z AUTO 00000KT 10SM CLR 20/20 A3011 RMK AO2
Observed Flight Rules
May-25 @ 04:55 UTC
(34 minutes ago)
VFR
Clouds
  • Clear skies
Temperature Dewpoint
20°C / 68°F 20°C / 68°F
Humidity Altimeter Pressure
100% 30.11" Hg 1020 hPa